createdAt,value
2019-03-31T00:00:20.550Z,17.60
2019-03-31T00:01:19.798Z,18.90
2019-03-31T00:02:19.795Z,17.50
2019-03-31T00:03:19.780Z,17.50
2019-03-31T00:04:19.780Z,18.00
2019-03-31T00:05:19.780Z,18.00
2019-03-31T00:06:19.830Z,17.90
2019-03-31T00:07:19.742Z,18.40
2019-03-31T00:08:19.746Z,17.90
2019-03-31T00:09:19.733Z,17.90
2019-03-31T00:10:19.729Z,18.70
2019-03-31T00:11:19.698Z,19.30
2019-03-31T00:12:19.683Z,19.60
2019-03-31T00:13:19.678Z,19.00
2019-03-31T00:14:19.667Z,18.20
2019-03-31T00:15:19.685Z,17.50
2019-03-31T00:16:19.638Z,16.60
2019-03-31T00:17:19.633Z,18.10
2019-03-31T00:18:19.624Z,17.90
2019-03-31T00:19:19.611Z,18.30
2019-03-31T00:20:19.621Z,18.40
2019-03-31T00:21:19.589Z,17.60
2019-03-31T00:22:19.629Z,16.50
2019-03-31T00:23:19.566Z,17.30
2019-03-31T00:24:20.583Z,17.80
2019-03-31T00:25:19.575Z,18.30
2019-03-31T00:26:19.539Z,17.80
2019-03-31T00:27:19.525Z,18.10
2019-03-31T00:28:19.513Z,20.20
2019-03-31T00:29:19.502Z,21.00
2019-03-31T00:30:19.491Z,19.80
2019-03-31T00:31:22.233Z,19.70
2019-03-31T00:32:19.471Z,19.20
2019-03-31T00:33:19.464Z,20.50
2019-03-31T00:34:19.457Z,21.20
2019-03-31T00:35:19.439Z,19.90
2019-03-31T00:36:19.462Z,19.70
2019-03-31T00:37:19.419Z,19.10
2019-03-31T00:38:19.405Z,18.80
2019-03-31T00:39:19.407Z,18.20
2019-03-31T00:40:19.387Z,18.80
2019-03-31T00:41:19.393Z,19.40
2019-03-31T00:42:19.364Z,18.60
2019-03-31T00:43:19.357Z,18.70
2019-03-31T00:44:19.344Z,19.80
2019-03-31T00:45:19.333Z,19.00
2019-03-31T00:46:19.363Z,18.50
2019-03-31T00:47:19.313Z,19.00
2019-03-31T00:48:19.307Z,17.30
2019-03-31T00:49:19.292Z,18.30
2019-03-31T00:50:19.281Z,19.20
2019-03-31T00:51:19.270Z,19.90
2019-03-31T00:52:19.277Z,19.20
2019-03-31T00:53:19.248Z,19.40
2019-03-31T00:54:19.238Z,19.60
2019-03-31T00:55:19.229Z,19.40
2019-03-31T00:56:19.216Z,19.30
2019-03-31T00:57:19.237Z,19.30
2019-03-31T00:58:19.202Z,19.30
2019-03-31T00:59:19.188Z,20.50
2019-03-31T01:00:19.174Z,20.20
2019-03-31T01:01:19.164Z,19.70
2019-03-31T01:02:19.173Z,19.60
2019-03-31T01:03:19.144Z,19.70
2019-03-31T01:04:19.134Z,18.80
2019-03-31T01:05:19.122Z,20.30
2019-03-31T01:06:19.114Z,21.50
2019-03-31T01:07:19.127Z,21.00
2019-03-31T01:08:19.090Z,17.40
2019-03-31T01:09:19.080Z,18.20
2019-03-31T01:10:19.072Z,16.50
2019-03-31T01:11:19.058Z,16.90
2019-03-31T01:12:19.077Z,16.90
2019-03-31T01:13:19.049Z,17.60
2019-03-31T01:14:19.027Z,18.20
2019-03-31T01:15:19.016Z,17.30
2019-03-31T01:16:19.007Z,18.70
2019-03-31T01:17:19.264Z,17.60
2019-03-31T01:18:18.996Z,17.60
2019-03-31T01:19:18.976Z,16.90
2019-03-31T01:20:18.964Z,17.00
2019-03-31T01:21:18.953Z,16.30
2019-03-31T01:22:18.943Z,18.10
2019-03-31T01:23:18.951Z,18.60
2019-03-31T01:24:18.926Z,17.50
2019-03-31T01:25:18.911Z,18.80
2019-03-31T01:26:18.900Z,21.20
2019-03-31T01:27:18.914Z,21.80
2019-03-31T01:28:18.879Z,19.70
2019-03-31T01:29:18.870Z,20.90
2019-03-31T01:30:18.859Z,19.00
2019-03-31T01:31:18.846Z,20.20
2019-03-31T01:32:18.856Z,21.10
2019-03-31T01:33:18.827Z,21.00
2019-03-31T01:34:18.816Z,21.80
2019-03-31T01:35:18.806Z,21.00
2019-03-31T01:36:18.802Z,20.70
2019-03-31T01:37:20.333Z,20.80
2019-03-31T01:38:18.774Z,18.60
2019-03-31T01:39:18.764Z,18.80
2019-03-31T01:40:18.752Z,20.00
2019-03-31T01:41:18.743Z,19.40
2019-03-31T01:42:18.753Z,19.90
2019-03-31T01:43:18.722Z,18.80
2019-03-31T01:44:18.711Z,19.00
2019-03-31T01:45:18.711Z,19.40
2019-03-31T01:46:18.690Z,19.70
2019-03-31T01:47:18.698Z,19.60
2019-03-31T01:48:18.678Z,18.90
2019-03-31T01:49:18.656Z,19.30
2019-03-31T01:50:18.652Z,18.70
2019-03-31T01:51:18.637Z,18.80
2019-03-31T01:52:18.644Z,19.10
2019-03-31T01:53:18.616Z,18.50
2019-03-31T01:54:18.607Z,18.70
2019-03-31T01:55:18.604Z,18.90
2019-03-31T01:56:18.584Z,18.70
2019-03-31T01:57:18.605Z,18.50
2019-03-31T01:58:18.564Z,19.60
2019-03-31T01:59:18.565Z,18.70
2019-03-31T02:00:18.551Z,18.00
2019-03-31T02:01:18.535Z,18.50
2019-03-31T02:02:18.521Z,19.50
2019-03-31T02:03:18.532Z,18.80
2019-03-31T02:04:18.501Z,18.70
2019-03-31T02:05:18.492Z,19.10
2019-03-31T02:06:18.479Z,19.10
2019-03-31T02:07:18.469Z,19.40
2019-03-31T02:08:18.477Z,18.70
2019-03-31T02:09:18.460Z,19.10
2019-03-31T02:10:18.458Z,19.50
2019-03-31T02:11:18.428Z,19.80
2019-03-31T02:12:18.426Z,20.00
2019-03-31T02:13:18.428Z,19.10
2019-03-31T02:14:18.393Z,17.90
2019-03-31T02:15:18.404Z,18.10
2019-03-31T02:16:18.380Z,19.40
2019-03-31T02:17:18.371Z,19.00
2019-03-31T02:18:18.375Z,19.60
2019-03-31T02:19:18.342Z,19.50
2019-03-31T02:20:18.340Z,19.80
2019-03-31T02:21:18.340Z,21.00
2019-03-31T02:22:18.313Z,20.40
2019-03-31T02:23:18.320Z,20.00
2019-03-31T02:24:18.297Z,20.10
2019-03-31T02:25:18.282Z,20.10
2019-03-31T02:26:18.270Z,20.50
2019-03-31T02:27:18.262Z,19.80
2019-03-31T02:28:18.267Z,19.30
2019-03-31T02:29:18.242Z,20.30
2019-03-31T02:30:18.233Z,20.10
2019-03-31T02:31:18.225Z,20.00
2019-03-31T02:32:24.310Z,21.50
2019-03-31T02:33:19.223Z,21.00
2019-03-31T02:34:18.188Z,20.00
2019-03-31T02:35:18.173Z,20.70
2019-03-31T02:36:18.186Z,19.70
2019-03-31T02:37:18.152Z,19.50
2019-03-31T02:38:18.165Z,19.90
2019-03-31T02:39:18.151Z,19.90
2019-03-31T02:40:18.124Z,19.90
2019-03-31T02:41:18.111Z,20.10
2019-03-31T02:42:18.100Z,21.10
2019-03-31T02:43:18.107Z,21.20
2019-03-31T02:44:18.081Z,22.40
2019-03-31T02:45:18.072Z,21.20
2019-03-31T02:46:18.060Z,20.80
2019-03-31T02:47:18.051Z,21.50
2019-03-31T02:48:18.059Z,20.50
2019-03-31T02:49:18.030Z,20.10
2019-03-31T02:50:18.016Z,20.50
2019-03-31T02:51:18.006Z,19.90
2019-03-31T02:52:17.997Z,20.90
2019-03-31T02:53:18.004Z,20.60
2019-03-31T02:54:17.981Z,21.00
2019-03-31T02:55:17.970Z,20.40
2019-03-31T02:56:17.976Z,20.50
2019-03-31T02:57:17.990Z,22.10
2019-03-31T02:58:17.966Z,22.10
2019-03-31T02:59:17.939Z,20.20
2019-03-31T03:00:17.913Z,20.30
2019-03-31T03:01:17.902Z,21.60
2019-03-31T03:02:17.910Z,21.90
2019-03-31T03:03:17.907Z,21.30
2019-03-31T03:04:17.875Z,22.80
2019-03-31T03:05:20.234Z,20.90
2019-03-31T03:06:17.851Z,21.20
2019-03-31T03:07:17.840Z,21.00
2019-03-31T03:08:17.835Z,21.00
2019-03-31T03:09:17.848Z,21.30
2019-03-31T03:10:17.809Z,22.50
2019-03-31T03:11:17.807Z,21.00
2019-03-31T03:12:17.789Z,20.00
2019-03-31T03:13:17.779Z,19.80
2019-03-31T03:14:17.788Z,18.80
2019-03-31T03:15:17.758Z,18.90
2019-03-31T03:16:17.758Z,18.20
2019-03-31T03:17:17.739Z,17.70
2019-03-31T03:18:17.729Z,17.30
2019-03-31T03:19:17.759Z,17.90
2019-03-31T03:20:17.705Z,18.10
2019-03-31T03:21:17.714Z,18.20
2019-03-31T03:22:17.692Z,17.80
2019-03-31T03:23:17.678Z,17.60
2019-03-31T03:24:17.711Z,17.80
2019-03-31T03:25:17.653Z,17.50
2019-03-31T03:26:17.651Z,17.80
2019-03-31T03:27:17.630Z,19.70
2019-03-31T03:28:17.617Z,18.90
2019-03-31T03:29:17.610Z,18.60
2019-03-31T03:30:17.810Z,18.20
2019-03-31T03:31:17.772Z,18.80
2019-03-31T03:32:17.617Z,19.10
2019-03-31T03:33:18.513Z,20.60
2019-03-31T03:34:17.559Z,19.20
2019-03-31T03:35:17.568Z,19.20
2019-03-31T03:36:17.576Z,19.10
2019-03-31T03:37:17.523Z,19.80
2019-03-31T03:38:17.543Z,19.90
2019-03-31T03:39:17.502Z,21.00
2019-03-31T03:40:17.517Z,21.00
2019-03-31T03:41:17.494Z,22.40
2019-03-31T03:42:17.483Z,23.00
2019-03-31T03:43:17.463Z,21.60
2019-03-31T03:44:17.452Z,19.70
2019-03-31T03:45:17.490Z,20.70
2019-03-31T03:46:17.431Z,19.10
2019-03-31T03:47:17.429Z,19.50
2019-03-31T03:48:17.414Z,20.60
2019-03-31T03:49:17.606Z,21.30
2019-03-31T03:50:17.414Z,22.70
2019-03-31T03:51:17.383Z,21.20
2019-03-31T03:52:17.368Z,22.40
2019-03-31T03:53:17.390Z,20.90
2019-03-31T03:54:17.353Z,21.10
2019-03-31T03:55:17.340Z,20.10
2019-03-31T03:56:17.350Z,20.10
2019-03-31T03:57:17.317Z,20.10
2019-03-31T03:58:17.309Z,21.40
2019-03-31T03:59:17.300Z,22.30
2019-03-31T04:00:17.285Z,22.90
2019-03-31T04:01:17.308Z,22.20
2019-03-31T04:02:17.279Z,21.60
2019-03-31T04:03:29.774Z,21.30
2019-03-31T04:04:18.240Z,20.00
2019-03-31T04:05:17.236Z,22.40
2019-03-31T04:06:17.243Z,23.10
2019-03-31T04:07:17.209Z,21.70
2019-03-31T04:08:17.204Z,24.10
2019-03-31T04:09:17.187Z,23.40
2019-03-31T04:10:17.186Z,20.20
2019-03-31T04:11:21.132Z,21.70
2019-03-31T04:12:17.163Z,22.90
2019-03-31T04:13:17.144Z,24.50
2019-03-31T04:14:17.144Z,20.90
2019-03-31T04:15:17.129Z,22.10
2019-03-31T04:16:17.136Z,21.90
2019-03-31T04:17:17.102Z,23.30
2019-03-31T04:18:17.092Z,22.50
2019-03-31T04:19:17.113Z,21.40
2019-03-31T04:20:17.071Z,20.80
2019-03-31T04:21:17.067Z,19.60
2019-03-31T04:22:17.069Z,19.80
2019-03-31T04:23:17.048Z,20.60
2019-03-31T04:24:17.028Z,19.80
2019-03-31T04:25:17.016Z,21.90
2019-03-31T04:26:17.068Z,20.50
2019-03-31T04:27:19.053Z,19.00
2019-03-31T04:28:16.989Z,19.50
2019-03-31T04:29:16.973Z,21.00
2019-03-31T04:30:16.966Z,19.70
2019-03-31T04:31:17.010Z,20.30
2019-03-31T04:32:16.965Z,22.50
2019-03-31T04:33:16.942Z,23.50
2019-03-31T04:34:17.143Z,23.20
2019-03-31T04:35:16.921Z,20.80
2019-03-31T04:36:16.902Z,20.40
2019-03-31T04:37:16.933Z,20.30
2019-03-31T04:38:16.889Z,20.20
2019-03-31T04:39:16.871Z,19.40
2019-03-31T04:40:16.860Z,22.00
2019-03-31T04:41:16.856Z,23.10
2019-03-31T04:42:16.839Z,24.10
2019-03-31T04:43:16.851Z,21.20
2019-03-31T04:44:16.818Z,22.20
2019-03-31T04:45:16.812Z,21.70
2019-03-31T04:46:16.799Z,20.70
2019-03-31T04:47:16.788Z,20.00
2019-03-31T04:48:16.805Z,20.00
2019-03-31T04:49:16.765Z,19.70
2019-03-31T04:50:16.755Z,21.30
2019-03-31T04:51:16.745Z,22.70
2019-03-31T04:52:16.772Z,20.50
2019-03-31T04:53:16.745Z,20.10
2019-03-31T04:54:16.713Z,19.90
2019-03-31T04:55:16.704Z,22.40
2019-03-31T04:56:16.691Z,22.80
2019-03-31T04:57:16.681Z,21.60
2019-03-31T04:58:16.696Z,21.00
2019-03-31T04:59:16.659Z,19.70
2019-03-31T05:00:16.649Z,20.50
2019-03-31T05:01:16.642Z,22.10
2019-03-31T05:02:16.628Z,22.70
2019-03-31T05:03:16.671Z,23.80
2019-03-31T05:04:16.611Z,22.40
2019-03-31T05:05:16.600Z,21.40
2019-03-31T05:06:16.588Z,20.20
2019-03-31T05:07:16.590Z,20.30
2019-03-31T05:08:16.570Z,21.60
2019-03-31T05:09:16.574Z,23.30
2019-03-31T05:10:16.552Z,23.50
2019-03-31T05:11:16.536Z,21.50
2019-03-31T05:12:16.934Z,21.50
2019-03-31T05:13:16.514Z,20.90
2019-03-31T05:14:16.541Z,20.50
2019-03-31T05:15:16.512Z,20.70
2019-03-31T05:16:16.495Z,23.20
2019-03-31T05:17:16.499Z,22.70
2019-03-31T05:18:16.465Z,22.90
2019-03-31T05:19:16.520Z,22.20
2019-03-31T05:20:16.445Z,21.20
2019-03-31T05:21:16.430Z,22.50
2019-03-31T05:22:16.427Z,22.70
2019-03-31T05:23:16.407Z,24.10
2019-03-31T05:24:16.426Z,21.60
2019-03-31T05:25:16.386Z,20.30
2019-03-31T05:26:16.379Z,19.70
2019-03-31T05:27:16.366Z,20.40
2019-03-31T05:28:16.356Z,21.30
2019-03-31T05:29:16.347Z,19.70
2019-03-31T05:30:16.354Z,21.90
2019-03-31T05:31:16.332Z,24.30
2019-03-31T05:32:16.315Z,22.00
2019-03-31T05:33:16.310Z,21.40
2019-03-31T05:34:19.229Z,21.00
2019-03-31T05:35:16.308Z,21.40
2019-03-31T05:36:16.272Z,21.10
2019-03-31T05:37:16.262Z,22.20
2019-03-31T05:38:16.250Z,20.90
2019-03-31T05:39:16.241Z,22.40
2019-03-31T05:40:16.256Z,24.10
2019-03-31T05:41:16.222Z,22.60
2019-03-31T05:42:16.216Z,22.00
2019-03-31T05:43:16.201Z,22.40
2019-03-31T05:44:16.188Z,22.90
2019-03-31T05:45:16.208Z,24.00
2019-03-31T05:46:16.171Z,24.40
2019-03-31T05:47:16.161Z,24.60
2019-03-31T05:48:16.153Z,22.60
2019-03-31T05:49:16.138Z,21.70
2019-03-31T05:50:16.125Z,22.40
2019-03-31T05:51:16.138Z,24.40
2019-03-31T05:52:16.104Z,26.20
2019-03-31T05:53:16.099Z,26.60
2019-03-31T05:54:16.095Z,22.70
2019-03-31T05:55:18.773Z,22.10
2019-03-31T05:56:16.131Z,23.30
2019-03-31T05:57:16.059Z,25.00
2019-03-31T05:58:16.044Z,27.80
2019-03-31T05:59:16.035Z,27.00
2019-03-31T06:00:16.029Z,26.70
2019-03-31T06:01:16.036Z,29.00
2019-03-31T06:02:16.001Z,25.30
2019-03-31T06:03:15.995Z,24.60
2019-03-31T06:04:15.984Z,25.90
2019-03-31T06:05:15.973Z,24.70
2019-03-31T06:06:15.989Z,25.60
2019-03-31T06:07:15.951Z,26.40
2019-03-31T06:08:15.941Z,26.90
2019-03-31T06:09:15.939Z,23.20
2019-03-31T06:10:15.918Z,22.80
2019-03-31T06:11:15.960Z,22.20
2019-03-31T06:12:15.900Z,21.80
2019-03-31T06:13:15.887Z,21.20
2019-03-31T06:14:15.880Z,21.90
2019-03-31T06:15:15.862Z,24.90
2019-03-31T06:16:15.893Z,25.70
2019-03-31T06:17:15.848Z,21.30
2019-03-31T06:18:15.838Z,22.50
2019-03-31T06:19:15.828Z,25.60
2019-03-31T06:20:15.809Z,26.70
2019-03-31T06:21:15.804Z,22.90
2019-03-31T06:22:15.858Z,25.70
2019-03-31T06:23:15.794Z,18.70
2019-03-31T06:24:15.767Z,20.50
2019-03-31T06:25:15.769Z,27.90
2019-03-31T06:26:15.753Z,25.70
2019-03-31T06:27:16.008Z,25.40
2019-03-31T06:28:15.729Z,25.20
2019-03-31T06:29:15.719Z,27.40
2019-03-31T06:30:15.732Z,27.80
2019-03-31T06:31:15.696Z,28.80
2019-03-31T06:32:15.703Z,23.80
2019-03-31T06:33:15.676Z,25.00
2019-03-31T06:34:15.664Z,28.90
2019-03-31T06:35:15.656Z,26.60
2019-03-31T06:36:15.655Z,28.00
2019-03-31T06:37:15.655Z,27.80
2019-03-31T06:38:15.623Z,22.10
2019-03-31T06:39:15.616Z,28.60
2019-03-31T06:40:15.609Z,23.60
2019-03-31T06:41:15.595Z,31.00
2019-03-31T06:42:15.606Z,31.40
2019-03-31T06:43:15.571Z,31.50
2019-03-31T06:44:15.565Z,27.90
2019-03-31T06:45:15.547Z,35.00
2019-03-31T06:46:15.544Z,33.20
2019-03-31T06:47:15.533Z,34.40
2019-03-31T06:48:15.534Z,41.10
2019-03-31T06:49:15.511Z,41.50
2019-03-31T06:50:15.499Z,38.00
2019-03-31T06:51:17.103Z,39.10
2019-03-31T06:52:15.473Z,45.20
2019-03-31T06:53:15.484Z,43.70
2019-03-31T06:54:15.458Z,45.30
2019-03-31T06:55:15.448Z,42.00
2019-03-31T06:56:15.435Z,42.60
2019-03-31T06:57:15.424Z,37.50
2019-03-31T06:58:15.438Z,46.00
2019-03-31T06:59:15.400Z,44.40
2019-03-31T07:00:15.431Z,44.50
2019-03-31T07:01:15.402Z,47.40
2019-03-31T07:02:15.368Z,44.10
2019-03-31T07:03:15.362Z,43.40
2019-03-31T07:04:15.366Z,46.20
2019-03-31T07:05:15.343Z,43.90
2019-03-31T07:06:15.326Z,42.60
2019-03-31T07:07:15.319Z,44.20
2019-03-31T07:08:15.309Z,44.20
2019-03-31T07:09:15.318Z,45.60
2019-03-31T07:10:15.291Z,46.10
2019-03-31T07:11:15.279Z,41.40
2019-03-31T07:12:15.265Z,44.40
2019-03-31T07:13:15.257Z,46.10
2019-03-31T07:14:15.273Z,47.20
2019-03-31T07:15:15.231Z,39.20
2019-03-31T07:16:15.252Z,44.80
2019-03-31T07:17:15.211Z,43.40
2019-03-31T07:18:16.050Z,41.00
2019-03-31T07:19:15.204Z,42.70
2019-03-31T07:20:15.200Z,46.70
2019-03-31T07:21:15.177Z,47.00
2019-03-31T07:22:15.156Z,44.50
2019-03-31T07:23:15.149Z,43.80
2019-03-31T07:24:15.139Z,45.90
2019-03-31T07:25:15.146Z,46.90
2019-03-31T07:26:15.116Z,40.70
2019-03-31T07:27:15.109Z,45.90
2019-03-31T07:28:15.099Z,46.20
2019-03-31T07:29:15.087Z,46.30
2019-03-31T07:30:15.105Z,46.50
2019-03-31T07:31:15.095Z,39.40
2019-03-31T07:32:15.054Z,47.90
2019-03-31T07:33:15.053Z,47.50
2019-03-31T07:34:15.035Z,47.80
2019-03-31T07:35:18.805Z,49.00
2019-03-31T07:36:15.062Z,46.20
2019-03-31T07:37:15.004Z,45.90
2019-03-31T07:38:14.989Z,47.30
2019-03-31T07:39:14.987Z,49.20
2019-03-31T07:40:15.082Z,47.40
2019-03-31T07:41:15.289Z,49.10
2019-03-31T07:42:14.974Z,48.90
2019-03-31T07:43:15.124Z,46.60
2019-03-31T07:44:15.477Z,47.40
2019-03-31T07:45:14.915Z,47.80
2019-03-31T07:46:14.924Z,47.50
2019-03-31T07:47:14.899Z,47.10
2019-03-31T07:48:14.895Z,47.60
2019-03-31T07:49:14.898Z,44.60
2019-03-31T07:50:14.862Z,46.20
2019-03-31T07:51:14.871Z,47.80
2019-03-31T07:52:14.841Z,47.90
2019-03-31T07:53:14.833Z,45.90
2019-03-31T07:54:14.828Z,47.80
2019-03-31T07:55:14.827Z,47.80
2019-03-31T07:56:16.231Z,42.20
2019-03-31T07:57:14.792Z,44.60
2019-03-31T07:58:14.804Z,46.60
2019-03-31T07:59:14.781Z,46.00
2019-03-31T08:00:14.759Z,45.50
2019-03-31T08:01:14.828Z,46.00
2019-03-31T08:02:14.736Z,46.10
2019-03-31T08:03:14.729Z,46.50
2019-03-31T08:04:14.717Z,46.00
2019-03-31T08:05:14.707Z,42.60
2019-03-31T08:06:14.695Z,45.80
2019-03-31T08:07:14.702Z,45.30
2019-03-31T08:08:14.674Z,42.10
2019-03-31T08:09:14.665Z,42.50
2019-03-31T08:10:14.651Z,44.90
2019-03-31T08:11:17.083Z,45.00
2019-03-31T08:12:14.630Z,45.20
2019-03-31T08:13:14.619Z,45.50
2019-03-31T08:14:14.612Z,45.70
2019-03-31T08:15:14.598Z,43.80
2019-03-31T08:16:14.608Z,43.00
2019-03-31T08:17:14.577Z,43.00
2019-03-31T08:18:14.567Z,42.40
2019-03-31T08:19:14.557Z,42.20
2019-03-31T08:20:14.545Z,43.50
2019-03-31T08:21:14.539Z,42.80
2019-03-31T08:22:14.543Z,42.50
2019-03-31T08:23:14.516Z,42.50
2019-03-31T08:24:14.507Z,42.40
2019-03-31T08:25:14.495Z,41.20
2019-03-31T08:26:14.533Z,43.60
2019-03-31T08:27:14.495Z,41.80
2019-03-31T08:28:14.462Z,41.90
2019-03-31T08:29:14.456Z,43.10
2019-03-31T08:30:14.441Z,42.20
2019-03-31T08:31:14.431Z,43.20
2019-03-31T08:32:14.437Z,42.10
2019-03-31T08:33:14.409Z,42.40
2019-03-31T08:34:14.400Z,42.00
2019-03-31T08:35:14.386Z,41.10
2019-03-31T08:36:14.377Z,41.80
2019-03-31T08:37:14.405Z,41.60
2019-03-31T08:38:14.359Z,42.30
2019-03-31T08:39:14.349Z,42.00
2019-03-31T08:40:14.340Z,42.00
2019-03-31T08:41:14.324Z,42.10
2019-03-31T08:42:14.314Z,41.00
2019-03-31T08:43:14.331Z,41.20
2019-03-31T08:44:14.293Z,41.80
2019-03-31T08:45:14.283Z,42.20
2019-03-31T08:46:14.278Z,40.80
2019-03-31T08:47:14.260Z,40.10
2019-03-31T08:48:14.274Z,40.90
2019-03-31T08:49:14.248Z,40.90
2019-03-31T08:50:14.229Z,41.60
2019-03-31T08:51:14.218Z,42.10
2019-03-31T08:52:14.207Z,39.70
2019-03-31T08:53:14.233Z,41.00
2019-03-31T08:54:14.187Z,40.20
2019-03-31T08:55:14.179Z,39.80
2019-03-31T08:56:14.194Z,41.60
2019-03-31T08:57:14.175Z,39.40
2019-03-31T08:58:14.146Z,40.80
2019-03-31T08:59:14.152Z,39.60
2019-03-31T09:00:14.126Z,39.30
2019-03-31T09:01:14.121Z,39.70
2019-03-31T09:02:14.103Z,39.40
2019-03-31T09:03:14.092Z,40.30
2019-03-31T09:04:14.104Z,40.40
2019-03-31T09:05:14.071Z,39.50
2019-03-31T09:06:14.059Z,38.30
2019-03-31T09:07:14.055Z,39.30
2019-03-31T09:08:14.041Z,38.10
2019-03-31T09:09:14.059Z,39.20
2019-03-31T09:10:14.023Z,39.50
2019-03-31T09:11:14.011Z,39.80
2019-03-31T09:12:14.008Z,39.50
2019-03-31T09:13:13.988Z,39.00
2019-03-31T09:14:14.004Z,38.90
2019-03-31T09:15:13.972Z,40.80
2019-03-31T09:16:13.962Z,38.60
2019-03-31T09:17:13.972Z,39.10
2019-03-31T09:18:13.935Z,40.20
2019-03-31T09:19:13.927Z,38.10
2019-03-31T09:20:13.931Z,39.60
2019-03-31T09:21:13.904Z,40.00
2019-03-31T09:22:13.896Z,37.80
2019-03-31T09:23:13.882Z,40.80
2019-03-31T09:24:13.877Z,39.30
2019-03-31T09:25:13.885Z,40.40
2019-03-31T09:26:13.848Z,41.00
2019-03-31T09:27:13.841Z,40.20
2019-03-31T09:28:13.831Z,40.90
2019-03-31T09:29:13.908Z,39.50
2019-03-31T09:30:13.832Z,39.70
2019-03-31T09:31:13.798Z,39.00
2019-03-31T09:32:13.788Z,40.90
2019-03-31T09:33:13.777Z,39.90
2019-03-31T09:34:13.771Z,41.10
2019-03-31T09:35:13.763Z,41.10
2019-03-31T09:36:16.488Z,40.50
2019-03-31T09:37:13.761Z,40.80
2019-03-31T09:38:13.727Z,40.00
2019-03-31T09:39:13.712Z,41.00
2019-03-31T09:40:13.706Z,39.80
2019-03-31T09:41:13.709Z,41.10
2019-03-31T09:42:13.686Z,41.70
2019-03-31T09:43:13.678Z,42.10
2019-03-31T09:44:13.665Z,39.80
2019-03-31T09:45:13.652Z,40.10
2019-03-31T09:46:13.660Z,40.60
2019-03-31T09:47:13.630Z,40.10
2019-03-31T09:48:13.617Z,40.90
2019-03-31T09:49:13.612Z,40.00
2019-03-31T09:50:17.013Z,41.10
2019-03-31T09:51:13.615Z,40.30
2019-03-31T09:52:13.577Z,41.30
2019-03-31T09:53:13.567Z,41.30
2019-03-31T09:54:13.556Z,41.40
2019-03-31T09:55:13.548Z,40.50
2019-03-31T09:56:15.189Z,40.90
2019-03-31T09:57:13.542Z,37.50
2019-03-31T09:58:13.534Z,41.00
2019-03-31T09:59:13.502Z,39.80
2019-03-31T10:00:13.495Z,40.50
2019-03-31T10:01:13.483Z,41.20
2019-03-31T10:02:13.498Z,40.70
2019-03-31T10:03:13.464Z,39.60
2019-03-31T10:04:13.476Z,39.60
2019-03-31T10:05:13.446Z,41.50
2019-03-31T10:06:13.440Z,39.60
2019-03-31T10:07:13.503Z,39.90
2019-03-31T10:08:13.414Z,39.80
2019-03-31T10:09:13.400Z,40.50
2019-03-31T10:10:13.387Z,40.80
2019-03-31T10:11:13.382Z,39.50
2019-03-31T10:12:13.366Z,39.60
2019-03-31T10:13:13.374Z,40.00
2019-03-31T10:14:13.348Z,40.50
2019-03-31T10:15:13.339Z,38.70
2019-03-31T10:16:13.346Z,38.70
2019-03-31T10:17:13.311Z,38.30
2019-03-31T10:18:13.323Z,38.60
2019-03-31T10:19:13.292Z,38.60
2019-03-31T10:20:13.287Z,38.40
2019-03-31T10:21:13.270Z,37.50
2019-03-31T10:22:13.259Z,38.10
2019-03-31T10:23:13.275Z,38.00
2019-03-31T10:24:13.239Z,36.50
2019-03-31T10:25:13.545Z,33.90
2019-03-31T10:26:15.988Z,38.10
2019-03-31T10:27:13.207Z,37.30
2019-03-31T10:28:13.248Z,38.20
2019-03-31T10:29:13.195Z,36.90
2019-03-31T10:30:13.180Z,36.10
2019-03-31T10:31:13.185Z,36.10
2019-03-31T10:32:13.157Z,36.80
2019-03-31T10:33:13.146Z,34.90
2019-03-31T10:34:13.157Z,34.80
2019-03-31T10:35:13.140Z,35.10
2019-03-31T10:36:13.113Z,35.20
2019-03-31T10:37:13.126Z,35.80
2019-03-31T10:38:13.106Z,34.90
2019-03-31T10:39:13.105Z,35.80
2019-03-31T10:40:13.072Z,35.00
2019-03-31T10:41:13.067Z,36.10
2019-03-31T10:42:13.048Z,35.70
2019-03-31T10:43:13.038Z,34.60
2019-03-31T10:44:13.049Z,34.30
2019-03-31T10:45:13.021Z,35.80
2019-03-31T10:46:13.009Z,35.30
2019-03-31T10:47:12.999Z,35.30
2019-03-31T10:48:20.437Z,35.80
2019-03-31T10:49:14.039Z,34.10
2019-03-31T10:50:12.965Z,34.10
2019-03-31T10:51:12.958Z,32.90
2019-03-31T10:52:12.998Z,34.00
2019-03-31T10:53:12.936Z,35.00
2019-03-31T10:54:12.966Z,33.70
2019-03-31T10:55:12.918Z,33.60
2019-03-31T10:56:12.914Z,34.90
2019-03-31T10:57:12.950Z,33.20
2019-03-31T10:58:12.882Z,33.80
2019-03-31T10:59:12.870Z,33.10
2019-03-31T11:00:12.879Z,34.40
2019-03-31T11:01:12.874Z,32.90
2019-03-31T11:02:12.843Z,32.60
2019-03-31T11:03:12.828Z,32.90
2019-03-31T11:04:12.819Z,33.30
2019-03-31T11:05:12.832Z,33.80
2019-03-31T11:06:12.804Z,32.60
2019-03-31T11:07:12.791Z,32.70
2019-03-31T11:08:12.833Z,32.50
2019-03-31T11:09:12.765Z,31.70
2019-03-31T11:10:12.774Z,33.40
2019-03-31T11:11:12.788Z,31.90
2019-03-31T11:12:12.731Z,33.20
2019-03-31T11:13:12.722Z,31.70
2019-03-31T11:14:12.712Z,32.10
2019-03-31T11:15:12.877Z,31.90
2019-03-31T11:16:12.691Z,30.70
2019-03-31T11:17:12.687Z,30.60
2019-03-31T11:18:12.680Z,29.90
2019-03-31T11:19:12.658Z,29.00
2019-03-31T11:20:12.651Z,30.60
2019-03-31T11:21:12.662Z,30.00
2019-03-31T11:22:12.635Z,29.90
2019-03-31T11:23:12.619Z,30.10
2019-03-31T11:24:12.606Z,29.20
2019-03-31T11:25:20.636Z,29.50
2019-03-31T11:26:13.605Z,29.50
2019-03-31T11:27:12.580Z,29.50
2019-03-31T11:28:12.565Z,28.40
2019-03-31T11:29:12.558Z,28.20
2019-03-31T11:30:12.547Z,28.90
2019-03-31T11:31:12.595Z,28.20
2019-03-31T11:32:12.526Z,27.70
2019-03-31T11:33:12.512Z,27.80
2019-03-31T11:34:12.500Z,27.40
2019-03-31T11:35:12.492Z,27.60
2019-03-31T11:36:12.481Z,26.60
2019-03-31T11:37:13.963Z,27.30
2019-03-31T11:38:12.458Z,26.80
2019-03-31T11:39:12.452Z,26.60
2019-03-31T11:40:12.443Z,26.20
2019-03-31T11:41:12.427Z,25.70
2019-03-31T11:42:12.439Z,25.20
2019-03-31T11:43:12.408Z,24.90
2019-03-31T11:44:12.395Z,24.50
2019-03-31T11:45:12.431Z,24.30
2019-03-31T11:46:12.375Z,25.00
2019-03-31T11:47:12.363Z,24.50
2019-03-31T11:48:12.374Z,24.10
2019-03-31T11:49:12.339Z,23.60
2019-03-31T11:50:12.331Z,23.40
2019-03-31T11:51:12.323Z,23.40
2019-03-31T11:52:12.308Z,23.10
2019-03-31T11:53:12.317Z,22.70
2019-03-31T11:54:12.288Z,22.70
2019-03-31T11:55:12.277Z,22.90
2019-03-31T11:56:12.265Z,22.50
2019-03-31T11:57:12.258Z,22.30
2019-03-31T11:58:12.264Z,22.70
2019-03-31T11:59:12.246Z,22.80
2019-03-31T12:00:12.224Z,21.80
2019-03-31T12:01:12.216Z,22.60
2019-03-31T12:02:26.116Z,23.30
2019-03-31T12:03:13.222Z,22.20
2019-03-31T12:04:12.180Z,20.60
2019-03-31T12:05:12.177Z,21.60
2019-03-31T12:06:12.164Z,21.50
2019-03-31T12:07:12.153Z,22.00
2019-03-31T12:08:12.638Z,21.90
2019-03-31T12:09:12.302Z,21.70
2019-03-31T12:10:12.127Z,20.90
2019-03-31T12:12:13.136Z,20.50
2019-03-31T12:13:12.087Z,20.80
2019-03-31T12:14:12.094Z,20.60
2019-03-31T12:15:12.063Z,19.90
2019-03-31T12:16:12.053Z,20.10
2019-03-31T12:17:12.046Z,19.40
2019-03-31T12:18:12.029Z,19.70
2019-03-31T12:19:12.044Z,20.60
2019-03-31T12:20:12.008Z,20.60
2019-03-31T12:21:11.997Z,19.30
2019-03-31T12:22:12.012Z,19.30
2019-03-31T12:23:11.986Z,19.90
2019-03-31T12:24:11.968Z,19.20
2019-03-31T12:25:11.976Z,19.00
2019-03-31T12:26:11.943Z,19.20
2019-03-31T12:27:21.925Z,19.20
2019-03-31T12:28:11.921Z,18.90
2019-03-31T12:29:11.917Z,18.60
2019-03-31T12:30:11.925Z,18.20
2019-03-31T12:31:11.891Z,18.40
2019-03-31T12:32:11.879Z,18.60
2019-03-31T12:33:11.904Z,18.40
2019-03-31T12:34:11.864Z,18.20
2019-03-31T12:35:11.915Z,19.40
2019-03-31T12:36:11.836Z,17.60
2019-03-31T12:37:11.825Z,17.50
2019-03-31T12:38:11.815Z,18.30
2019-03-31T12:39:11.812Z,17.50
2019-03-31T12:40:15.092Z,17.80
2019-03-31T12:41:11.813Z,16.10
2019-03-31T12:42:11.770Z,17.40
2019-03-31T12:43:11.769Z,16.40
2019-03-31T12:44:11.752Z,16.10
2019-03-31T12:45:11.746Z,17.20
2019-03-31T12:46:11.753Z,18.90
2019-03-31T12:47:11.747Z,19.90
2019-03-31T12:48:11.706Z,17.90
2019-03-31T12:49:11.707Z,18.80
2019-03-31T12:50:11.689Z,18.00
2019-03-31T12:51:11.700Z,18.00
2019-03-31T12:52:11.669Z,16.70
2019-03-31T12:53:11.655Z,15.70